Laurentian Fan: Past 24 Hour Conditions

 

Grand Étang

02:00 PM ADT 01 September 2015
Disclaimer

This table is a summary of hourly weather conditions for the past 24 hours.
Please note that these observations might not always be representative of weather conditions over their associated marine area.

Date / Time
(ADT)
Wind(knots) Conditions Visibility(km) Pressure(kPa) Air tempC) Relative humidity(%) Dew pointC) Humidex
01 September 2015
14:00 NNW 26 gust 33 N/A N/A 101.0 16 81 12 *
13:00 NNW 29 gust 34 N/A N/A 101.0 15 82 12 *
12:00 NNW 26 gust 33 N/A N/A 100.9 15 85 13 *
11:00 NNW 28 gust 36 N/A N/A 100.8 16 89 14 *
10:00 NNW 27 gust 36 N/A N/A 100.7 16 91 14 *
9:00 NW 31 gust 38 N/A N/A 100.7 16 89 14 *
8:00 NW 31 gust 36 N/A N/A 100.5 16 91 15 *
7:00 NW 27 gust 32 N/A N/A 100.4 16 88 14 *
6:00 NW 28 gust 34 N/A N/A 100.3 17 88 14 *
5:00 NW 30 gust 36 N/A N/A 100.2 18 90 16 *
4:00 WNW 27 gust 32 N/A N/A 100.1 18 89 16 *
3:00 WNW 27 gust 32 N/A N/A 100.1 19 86 17 *
2:00 W 25 N/A N/A 100.1 21 81 17 26
1:00 W 20 N/A N/A 100.1 20 84 18 26
0:00 SW 14 N/A N/A 100.2 20 86 17 *
31 August 2015
23:00 WSW 17 N/A N/A 100.2 19 85 17 *
22:00 SSW 13 gust 19 N/A N/A 100.1 22 77 17 27
21:00 S 11 gust 17 N/A N/A 100.2 22 71 17 28
20:00 S 11 gust 18 N/A N/A 100.2 23 71 17 28
19:00 SSE 8 N/A N/A 100.2 23 66 17 28
18:00 S 12 N/A N/A 100.3 25 62 17 30
17:00 SSW 12 gust 18 N/A N/A 100.4 25 63 17 30
16:00 SSW 11 gust 20 N/A N/A 100.5 25 66 18 30
15:00 SSW 12 gust 19 N/A N/A 100.6 25 65 18 31
14:00 SSW 11 gust 17 N/A N/A 100.7 25 70 19 31

Zoom-in to make a selection

Map of Atlantic - Newfoundland marine weather areas Southwestern Grand Banks - 44138 Banquereau - 44139 Tail of the Bank - 44140 Nickerson Bank - 44251 Northeast Burgeo Bank - 44255 Blanc-Sablon Airport Cap Whittle Chevery Natashquan Airport Heath Point Miscou Island Grand Étang Ingonish Beach North Mountain St.Paul Island J.A. Douglas McCurdy Sydney Airport Charlottetown Airport East Point North Cape Argentia Bonavista Burgeo Cape Race Corner Brook Daniel's Harbour Englee Ferolle Point La Scie Port aux Basques Rocky Harbour Sagona Island St. Anthony Airport St. John's Int'l Airport St. Lawrence Stephenville Airport Twillingate Winterland Wreckhouse Cartwright Airport Mary's Harbour Grates Cove Pool's Island Marticot Island Long Pond Eskasoni (First Nations) Îles de la Madeleine Airport
Legend:
buoy Buoy
land station Land Station

Atlantic - Newfoundland Area

Another Region

What we are doing

Date modified: